Time;durP1;ratioP1;P1;durP2;ratioP2;P2;SDS_P1;SDS_P2;PMS_P1;PMS_P2;Temp;Humidity;BMP_temperature;BMP_pressure;BME280_temperature;BME280_humidity;BME280_pressure;Samples;Min_cycle;Max_cycle;Signal;HPM_P1;HPM_P2
2022/01/01 00:00:52;;;;;;;56.33;40.47;;;5.90;99.90;;;;;;6302190;28;20444;-62
2022/01/01 00:03:56;;;;;;;52.23;40.03;;;6.00;99.90;;;;;;6302277;28;20500;-62
2022/01/01 00:06:59;;;;;;;44.73;34.87;;;6.00;99.90;;;;;;6302308;28;20502;-60
2022/01/01 00:10:02;;;;;;;48.70;33.97;;;6.10;99.90;;;;;;6302211;28;20472;-61
2022/01/01 00:13:06;;;;;;;36.47;31.73;;;6.20;99.90;;;;;;6301691;28;20476;-61
2022/01/01 00:16:10;;;;;;;43.67;34.23;;;6.30;99.90;;;;;;6301703;28;20496;-62
2022/01/01 00:19:13;;;;;;;45.17;33.10;;;6.40;99.90;;;;;;6301976;28;20461;-63
2022/01/01 00:22:16;;;;;;;45.23;34.23;;;6.50;99.90;;;;;;6297411;28;20953;-62
2022/01/01 00:25:19;;;;;;;38.20;29.17;;;6.60;99.90;;;;;;6301580;28;21019;-61
2022/01/01 00:28:24;;;;;;;31.53;25.23;;;6.60;99.90;;;;;;6301863;28;20538;-63
2022/01/01 00:31:28;;;;;;;31.67;23.43;;;6.80;99.90;;;;;;6301481;28;20484;-62
2022/01/01 00:34:31;;;;;;;32.00;25.83;;;7.00;99.90;;;;;;6301503;28;20477;-62
2022/01/01 00:37:34;;;;;;;32.90;24.57;;;7.10;99.90;;;;;;6300942;28;20473;-62
2022/01/01 00:40:37;;;;;;;35.53;26.63;;;7.30;99.90;;;;;;6301060;28;20480;-63
2022/01/01 00:43:42;;;;;;;24.47;20.17;;;7.30;99.90;;;;;;6301281;28;20498;-63
2022/01/01 00:46:45;;;;;;;16.77;14.87;;;7.40;99.90;;;;;;6300911;28;20468;-62
2022/01/01 00:49:48;;;;;;;20.20;16.30;;;7.50;99.90;;;;;;6300868;28;20469;-63
2022/01/01 00:52:52;;;;;;;18.37;13.50;;;7.70;99.90;;;;;;6301032;28;20469;-64
2022/01/01 00:55:55;;;;;;;17.13;13.00;;;7.90;99.90;;;;;;6301204;28;20481;-63
2022/01/01 00:59:00;;;;;;;15.10;11.20;;;8.00;99.90;;;;;;6300907;28;20477;-63
2022/01/01 01:02:03;;;;;;;12.30;9.90;;;8.20;99.90;;;;;;6300356;28;21167;-63
2022/01/01 01:05:07;;;;;;;11.03;9.83;;;8.30;99.90;;;;;;6287946;28;20481;-62
2022/01/01 01:08:13;;;;;;;12.40;9.30;;;8.40;99.90;;;;;;6276011;28;20488;-62
2022/01/01 01:11:16;;;;;;;11.70;8.60;;;8.60;99.90;;;;;;6292874;28;20473;-62
2022/01/01 01:14:22;;;;;;;9.30;8.30;;;8.70;99.90;;;;;;6300488;28;20480;-63
2022/01/01 01:17:26;;;;;;;9.87;7.50;;;8.80;99.90;;;;;;6301296;28;20476;-63
2022/01/01 01:20:30;;;;;;;12.00;8.30;;;8.90;99.90;;;;;;6300761;28;20465;-63
2022/01/01 01:23:35;;;;;;;10.50;8.10;;;9.00;99.90;;;;;;6300886;28;20497;-63
2022/01/01 01:26:38;;;;;;;8.13;7.33;;;9.10;99.90;;;;;;6299940;28;20527;-62
2022/01/01 01:29:45;;;;;;;7.83;7.03;;;9.20;99.90;;;;;;6286125;28;20473;-63
2022/01/01 01:32:48;;;;;;;9.20;7.37;;;9.20;99.90;;;;;;6299731;28;20811;-62
2022/01/01 01:35:51;;;;;;;9.57;8.10;;;9.20;99.90;;;;;;6299499;28;20469;-62
2022/01/01 01:38:54;;;;;;;9.80;6.80;;;9.20;99.90;;;;;;6299595;28;20484;-62
2022/01/01 01:41:57;;;;;;;10.43;7.03;;;9.30;99.90;;;;;;6299282;28;20477;-62
2022/01/01 01:45:03;;;;;;;8.23;6.50;;;9.20;99.90;;;;;;6293880;28;20474;-63
2022/01/01 01:48:06;;;;;;;6.83;5.90;;;9.20;99.90;;;;;;6299453;28;20527;-64
2022/01/01 01:51:11;;;;;;;9.10;6.70;;;9.10;99.90;;;;;;6299612;28;20825;-64
2022/01/01 01:54:16;;;;;;;11.63;6.40;;;9.10;99.90;;;;;;6299234;28;20481;-64
2022/01/01 01:57:20;;;;;;;9.40;7.10;;;9.20;99.90;;;;;;6297317;28;20798;-64
2022/01/01 02:00:52;;;;;;;10.17;6.73;;;9.30;99.90;;;;;;6297601;28;20481;-64
2022/01/01 02:03:57;;;;;;;6.83;6.03;;;9.40;99.90;;;;;;6297727;28;20627;-64
2022/01/01 02:07:00;;;;;;;9.50;7.10;;;9.40;99.70;;;;;;6298130;28;20441;-63
2022/01/01 02:10:04;;;;;;;7.43;6.63;;;9.40;99.50;;;;;;6298632;28;20534;-64
2022/01/01 02:13:12;;;;;;;8.17;6.37;;;9.30;99.40;;;;;;6299648;28;20534;-63
2022/01/01 02:19:51;;;;;;;20.63;17.23;;;9.20;99.60;;;;;;6295645;28;20495;-63
2022/01/01 02:23:00;;;;;;;12.57;11.10;;;9.00;99.90;;;;;;6298530;28;20474;-63
2022/01/01 02:26:03;;;;;;;14.60;11.10;;;9.00;99.90;;;;;;6298461;28;20823;-64
2022/01/01 02:29:06;;;;;;;8.90;8.07;;;8.90;99.90;;;;;;6299266;28;20476;-63
2022/01/01 02:32:11;;;;;;;7.30;6.43;;;8.80;99.90;;;;;;6284106;28;20489;-64
2022/01/01 02:35:17;;;;;;;8.60;7.10;;;8.80;99.90;;;;;;6299214;28;20477;-64
2022/01/01 02:38:22;;;;;;;7.37;6.67;;;8.80;99.90;;;;;;6299660;28;20840;-64
2022/01/01 02:41:26;;;;;;;12.37;7.93;;;8.80;99.90;;;;;;6298670;28;20480;-64
2022/01/01 02:44:29;;;;;;;9.27;7.00;;;8.70;99.90;;;;;;6299745;28;20477;-64
2022/01/01 02:47:34;;;;;;;6.87;6.10;;;8.60;99.90;;;;;;6299641;28;20479;-63
2022/01/01 02:50:37;;;;;;;7.50;5.87;;;8.50;99.90;;;;;;6299642;28;20480;-63
2022/01/01 02:53:44;;;;;;;8.00;7.20;;;8.50;99.90;;;;;;6299145;28;20477;-63
2022/01/01 02:56:48;;;;;;;10.67;8.43;;;8.40;99.90;;;;;;6299084;28;20818;-63
2022/01/01 02:59:52;;;;;;;10.37;8.97;;;8.30;99.90;;;;;;6299201;28;20511;-63
2022/01/01 03:02:55;;;;;;;10.67;8.33;;;8.20;99.90;;;;;;6298849;28;20538;-63
2022/01/01 03:05:58;;;;;;;8.40;7.53;;;8.10;99.90;;;;;;6299252;28;20469;-63
2022/01/01 03:09:02;;;;;;;8.47;7.63;;;8.10;99.90;;;;;;6300824;28;20526;-64
2022/01/01 03:12:08;;;;;;;12.17;9.13;;;8.10;99.90;;;;;;6303474;28;20964;-63
2022/01/01 03:15:12;;;;;;;9.77;8.03;;;7.90;99.90;;;;;;6303726;28;20816;-63
2022/01/01 03:18:15;;;;;;;5.97;5.07;;;7.80;99.90;;;;;;6303871;28;20937;-63
2022/01/01 03:21:18;;;;;;;7.93;7.13;;;7.80;99.90;;;;;;6303406;28;20488;-63
2022/01/01 03:24:24;;;;;;;7.63;6.37;;;7.80;99.90;;;;;;6303256;28;20468;-64
2022/01/01 03:27:27;;;;;;;8.17;5.90;;;7.80;99.90;;;;;;6303440;28;20816;-64
2022/01/01 03:30:30;;;;;;;7.83;7.03;;;7.70;99.90;;;;;;6302845;28;20783;-64
2022/01/01 03:33:33;;;;;;;8.67;7.10;;;7.70;99.90;;;;;;6302963;28;20815;-64
2022/01/01 03:36:37;;;;;;;7.97;6.63;;;7.60;99.90;;;;;;6298701;28;20484;-64
2022/01/01 03:39:41;;;;;;;6.53;5.80;;;7.60;99.90;;;;;;6303107;28;20488;-64
2022/01/01 03:42:45;;;;;;;14.67;12.63;;;7.60;99.90;;;;;;6303329;28;20769;-64
2022/01/01 03:45:48;;;;;;;14.73;11.90;;;7.50;99.90;;;;;;6303177;28;20466;-64
2022/01/01 03:48:51;;;;;;;21.00;15.03;;;7.40;99.90;;;;;;6302912;28;20829;-64
2022/01/01 03:51:54;;;;;;;20.07;15.80;;;7.40;99.90;;;;;;6302805;28;20809;-64
2022/01/01 03:54:59;;;;;;;15.00;12.63;;;7.40;99.90;;;;;;6302466;28;20466;-64
2022/01/01 03:58:02;;;;;;;23.60;18.53;;;7.40;99.90;;;;;;6302596;28;20820;-64
2022/01/01 04:01:05;;;;;;;18.83;15.63;;;7.30;99.90;;;;;;6302917;28;20472;-63
2022/01/01 04:04:08;;;;;;;16.50;13.40;;;7.30;99.90;;;;;;6302208;28;20461;-63
2022/01/01 04:07:12;;;;;;;19.33;14.87;;;7.30;99.90;;;;;;6302694;28;20472;-63
2022/01/01 04:10:16;;;;;;;13.93;11.73;;;7.20;99.90;;;;;;6302764;28;20465;-63
2022/01/01 04:13:19;;;;;;;16.57;12.83;;;7.20;99.90;;;;;;6302269;28;20488;-63
2022/01/01 04:16:23;;;;;;;11.93;9.97;;;7.10;99.90;;;;;;6302424;28;20476;-63
2022/01/01 04:19:37;;;;;;;9.90;8.40;;;7.10;99.90;;;;;;6301495;28;20480;-63
2022/01/01 04:22:40;;;;;;;9.93;7.67;;;7.10;99.90;;;;;;6302148;28;20832;-63
2022/01/01 04:25:47;;;;;;;7.57;5.63;;;7.00;99.90;;;;;;6302044;28;20527;-63
2022/01/01 04:28:50;;;;;;;5.70;5.00;;;7.00;99.90;;;;;;6302692;28;20461;-63
2022/01/01 04:31:53;;;;;;;8.80;5.77;;;7.00;99.90;;;;;;6301434;28;20480;-63
2022/01/01 04:34:56;;;;;;;5.30;4.80;;;7.00;99.90;;;;;;6301754;28;20548;-63
2022/01/01 04:37:59;;;;;;;5.13;4.63;;;6.90;99.90;;;;;;6292652;28;20473;-63
2022/01/01 04:41:05;;;;;;;4.37;3.70;;;6.90;99.90;;;;;;6301330;28;20814;-63
2022/01/01 04:44:08;;;;;;;4.43;4.00;;;6.90;99.90;;;;;;6301556;28;20473;-63
2022/01/01 04:47:11;;;;;;;3.63;3.33;;;6.90;99.90;;;;;;6301404;28;20480;-63
2022/01/01 04:50:14;;;;;;;4.53;4.13;;;6.80;99.90;;;;;;6301457;28;20469;-63
2022/01/01 04:53:18;;;;;;;3.67;3.37;;;6.80;99.90;;;;;;6301327;28;20473;-63
2022/01/01 04:56:23;;;;;;;4.37;3.97;;;6.80;99.90;;;;;;6301364;28;20794;-63
2022/01/01 04:59:26;;;;;;;5.27;4.60;;;6.70;99.90;;;;;;6301324;28;20473;-63
2022/01/01 05:02:30;;;;;;;5.10;4.30;;;6.70;99.90;;;;;;6301368;28;20475;-63
2022/01/01 05:05:33;;;;;;;5.23;4.77;;;6.60;99.90;;;;;;6300922;28;20535;-63
2022/01/01 05:08:36;;;;;;;5.03;3.87;;;6.70;99.90;;;;;;6300796;28;20484;-63
2022/01/01 05:11:41;;;;;;;4.73;3.80;;;6.60;99.90;;;;;;6300793;28;20473;-63
2022/01/01 05:14:44;;;;;;;5.57;4.23;;;6.60;99.90;;;;;;6300434;28;20477;-63
2022/01/01 05:17:47;;;;;;;8.63;5.37;;;6.50;99.90;;;;;;6301017;28;20477;-63
2022/01/01 05:20:50;;;;;;;5.97;5.00;;;6.50;99.90;;;;;;6300426;28;20469;-63
2022/01/01 05:23:54;;;;;;;7.33;6.33;;;6.40;99.90;;;;;;6300802;28;20477;-63
2022/01/01 05:26:58;;;;;;;10.73;9.50;;;6.40;99.90;;;;;;6300514;28;20473;-63
2022/01/01 05:30:02;;;;;;;10.50;8.47;;;6.50;99.90;;;;;;6300398;28;20474;-63
2022/01/01 05:33:05;;;;;;;8.63;7.60;;;6.40;99.90;;;;;;6300412;28;20480;-63
2022/01/01 05:36:08;;;;;;;12.17;9.90;;;6.50;99.90;;;;;;6299885;28;20469;-64
2022/01/01 05:39:11;;;;;;;15.73;10.70;;;6.50;99.90;;;;;;6300230;28;20473;-64
2022/01/01 05:42:16;;;;;;;12.70;10.70;;;6.40;99.90;;;;;;6295658;28;20485;-62
2022/01/01 05:45:19;;;;;;;9.53;7.83;;;6.50;99.90;;;;;;6300028;28;20486;-63
2022/01/01 05:48:22;;;;;;;10.03;7.50;;;6.50;99.90;;;;;;6300229;28;20469;-63
2022/01/01 05:51:25;;;;;;;8.00;6.57;;;6.40;99.90;;;;;;6299858;28;20469;-63
2022/01/01 05:54:28;;;;;;;9.90;5.90;;;6.40;99.90;;;;;;6300088;28;20486;-63
2022/01/01 05:57:33;;;;;;;8.30;6.87;;;6.40;99.90;;;;;;6300149;28;20464;-63
2022/01/01 06:00:37;;;;;;;11.37;8.40;;;6.40;99.90;;;;;;6300050;28;20558;-63
2022/01/01 06:03:40;;;;;;;9.00;8.00;;;6.30;99.90;;;;;;6299798;28;20474;-63
2022/01/01 06:06:43;;;;;;;7.90;6.77;;;6.30;99.90;;;;;;6299515;28;20461;-63
2022/01/01 06:09:49;;;;;;;8.43;7.53;;;6.30;99.90;;;;;;6300121;28;20445;-63
2022/01/01 06:12:54;;;;;;;9.10;7.67;;;6.20;99.90;;;;;;6300210;28;20421;-63
2022/01/01 06:15:58;;;;;;;9.50;6.90;;;6.30;99.90;;;;;;6299899;28;20933;-63
2022/01/01 06:19:01;;;;;;;6.90;6.20;;;6.30;99.90;;;;;;6300073;28;20901;-63
2022/01/01 06:22:04;;;;;;;7.13;5.80;;;6.20;99.90;;;;;;6299985;28;20476;-63
2022/01/01 06:25:08;;;;;;;6.03;5.37;;;6.20;99.90;;;;;;6299778;28;20485;-63
2022/01/01 06:28:13;;;;;;;5.67;4.70;;;6.20;99.90;;;;;;6299599;28;20477;-63
2022/01/01 06:31:16;;;;;;;8.50;4.77;;;6.20;99.90;;;;;;6299678;28;20473;-62
2022/01/01 06:34:19;;;;;;;8.83;7.93;;;6.20;99.90;;;;;;6299008;28;20552;-62
2022/01/01 06:37:22;;;;;;;8.33;7.53;;;6.20;99.90;;;;;;6299796;28;20465;-62
2022/01/01 06:40:25;;;;;;;10.93;7.00;;;6.10;99.90;;;;;;6299405;28;20473;-63
2022/01/01 06:43:30;;;;;;;6.97;5.00;;;6.20;99.90;;;;;;6300602;28;20490;-63
2022/01/01 06:46:33;;;;;;;5.07;4.23;;;6.20;99.90;;;;;;6304419;28;20536;-63
2022/01/01 06:49:36;;;;;;;5.53;5.13;;;6.20;99.90;;;;;;6304382;28;20473;-62
2022/01/01 06:52:44;;;;;;;5.43;4.77;;;6.20;99.90;;;;;;6304174;28;20483;-63
2022/01/01 06:55:47;;;;;;;5.17;4.67;;;6.20;99.90;;;;;;6304154;28;20469;-63
2022/01/01 06:58:51;;;;;;;5.30;3.83;;;6.30;99.90;;;;;;6304024;28;20472;-63
2022/01/01 07:01:54;;;;;;;7.93;4.50;;;6.30;99.90;;;;;;6303526;28;20522;-63
2022/01/01 07:04:58;;;;;;;4.83;3.93;;;6.30;99.90;;;;;;6303358;28;20811;-64
2022/01/01 07:08:01;;;;;;;5.30;4.00;;;6.30;99.90;;;;;;6287415;28;20508;-62
2022/01/01 07:11:04;;;;;;;4.77;4.20;;;6.30;99.90;;;;;;6279318;28;20462;-63
2022/01/01 07:14:09;;;;;;;6.17;4.20;;;6.40;99.90;;;;;;6278599;28;20490;-62
2022/01/01 07:17:12;;;;;;;5.10;4.47;;;6.30;99.90;;;;;;6278893;28;20473;-63
2022/01/01 07:20:15;;;;;;;4.97;4.43;;;6.40;99.90;;;;;;6278707;28;20481;-63
2022/01/01 07:23:18;;;;;;;7.70;5.27;;;6.40;99.90;;;;;;6283354;28;20753;-62
2022/01/01 07:26:22;;;;;;;4.97;4.50;;;6.40;99.90;;;;;;6292797;28;20458;-63
2022/01/01 07:29:26;;;;;;;6.30;5.70;;;6.40;99.90;;;;;;6278661;28;20474;-63
2022/01/01 07:32:29;;;;;;;6.50;5.80;;;6.50;99.90;;;;;;6278540;28;20474;-63
2022/01/01 07:35:36;;;;;;;8.63;6.13;;;6.60;99.90;;;;;;6278194;28;20485;-63
2022/01/01 07:38:39;;;;;;;6.33;5.73;;;6.60;99.90;;;;;;6278503;28;20502;-63
2022/01/01 07:41:43;;;;;;;6.50;5.90;;;6.70;99.90;;;;;;6277993;28;20485;-63
2022/01/01 07:44:47;;;;;;;6.47;5.77;;;6.80;99.90;;;;;;6277949;28;20473;-63
2022/01/01 07:47:50;;;;;;;5.87;4.43;;;6.90;99.90;;;;;;6277758;28;20481;-63
2022/01/01 07:50:53;;;;;;;6.27;5.60;;;7.00;99.90;;;;;;6269017;28;20527;-63
2022/01/01 07:53:56;;;;;;;7.00;6.30;;;7.10;99.90;;;;;;6277648;28;20501;-63
2022/01/01 07:57:00;;;;;;;7.63;6.83;;;7.20;99.90;;;;;;6276542;28;20473;-63
2022/01/01 08:00:07;;;;;;;9.60;7.27;;;7.40;99.90;;;;;;6277878;28;20480;-63
2022/01/01 08:03:12;;;;;;;10.23;7.33;;;7.40;99.90;;;;;;6277844;28;20965;-63
2022/01/01 08:06:15;;;;;;;9.50;7.40;;;7.50;99.90;;;;;;6277563;28;20485;-63
2022/01/01 08:09:18;;;;;;;10.07;7.03;;;7.70;99.90;;;;;;6278138;28;20485;-63
2022/01/01 08:12:21;;;;;;;9.30;7.40;;;7.80;99.90;;;;;;6302583;28;20518;-63
2022/01/01 08:15:26;;;;;;;9.17;7.27;;;8.00;99.90;;;;;;6302361;28;20473;-63
2022/01/01 08:18:29;;;;;;;8.30;7.50;;;8.20;99.90;;;;;;6301933;28;20473;-63
2022/01/01 08:21:32;;;;;;;9.00;7.37;;;8.40;99.90;;;;;;6302082;28;20495;-63
2022/01/01 08:24:35;;;;;;;12.20;7.50;;;8.50;99.90;;;;;;6301591;28;20492;-63
2022/01/01 08:27:38;;;;;;;9.30;6.90;;;8.60;99.90;;;;;;6301715;28;20476;-63
2022/01/01 08:30:43;;;;;;;8.80;7.17;;;8.80;99.90;;;;;;6301584;28;20491;-63
2022/01/01 08:33:46;;;;;;;10.77;9.10;;;9.00;99.90;;;;;;6301791;28;20461;-63
2022/01/01 08:36:49;;;;;;;10.40;9.40;;;9.10;99.90;;;;;;6302151;28;20441;-63
2022/01/01 08:39:52;;;;;;;10.63;9.53;;;9.20;99.90;;;;;;6301845;28;20437;-63
2022/01/01 08:42:55;;;;;;;13.30;11.20;;;9.40;99.90;;;;;;6301586;28;20477;-64
2022/01/01 08:46:00;;;;;;;13.77;11.10;;;9.40;99.90;;;;;;6301744;28;20442;-63
2022/01/01 08:49:05;;;;;;;14.43;11.37;;;9.50;99.90;;;;;;6302006;28;20468;-63
2022/01/01 08:52:12;;;;;;;14.97;11.20;;;9.50;99.90;;;;;;6297474;28;20465;-63
2022/01/01 08:55:15;;;;;;;11.13;10.00;;;9.60;99.90;;;;;;6301330;28;20476;-63
2022/01/01 08:58:18;;;;;;;13.27;11.87;;;9.70;99.90;;;;;;6300750;28;20465;-63
2022/01/01 09:01:30;;;;;;;14.80;11.90;;;9.70;99.90;;;;;;6301049;28;20972;-63
2022/01/01 09:04:33;;;;;;;12.47;10.93;;;9.80;99.90;;;;;;6300638;28;20470;-63
2022/01/01 09:07:37;;;;;;;14.77;12.33;;;9.80;99.80;;;;;;6300448;28;20473;-63
2022/01/01 09:10:40;;;;;;;13.97;12.43;;;10.00;99.00;;;;;;6300777;28;20473;-63
2022/01/01 09:13:43;;;;;;;13.60;11.27;;;10.10;99.00;;;;;;6301269;28;20477;-63
2022/01/01 09:16:48;;;;;;;14.37;12.17;;;10.30;98.20;;;;;;6300973;28;20484;-63
2022/01/01 09:19:51;;;;;;;15.37;12.27;;;10.40;98.00;;;;;;6301107;28;20469;-63
2022/01/01 09:22:55;;;;;;;14.27;12.83;;;10.60;97.70;;;;;;6300456;28;20473;-63
2022/01/01 09:26:00;;;;;;;15.10;11.10;;;10.60;96.60;;;;;;6300028;28;20485;-63
2022/01/01 09:29:04;;;;;;;11.10;9.87;;;10.50;96.60;;;;;;6300629;28;20476;-62
2022/01/01 09:32:10;;;;;;;12.90;10.77;;;10.80;97.10;;;;;;6300049;28;20457;-62
2022/01/01 09:35:19;;;;;;;13.40;10.23;;;10.90;96.40;;;;;;6300134;28;20553;-62
2022/01/01 09:38:22;;;;;;;14.87;13.30;;;11.20;95.90;;;;;;6300472;28;20496;-63
2022/01/01 09:41:25;;;;;;;14.73;11.90;;;11.50;95.80;;;;;;6300026;28;20476;-62
2022/01/01 09:44:28;;;;;;;14.53;12.23;;;11.70;95.40;;;;;;6300440;28;20465;-62
2022/01/01 09:47:34;;;;;;;10.37;9.17;;;11.90;94.80;;;;;;6300167;28;20465;-62
2022/01/01 09:50:37;;;;;;;9.77;8.77;;;12.10;94.60;;;;;;6299938;28;20846;-62
2022/01/01 09:53:40;;;;;;;9.27;8.30;;;12.30;93.90;;;;;;6299710;28;20465;-62
2022/01/01 09:56:43;;;;;;;10.70;9.00;;;12.60;93.50;;;;;;6300163;28;20465;-62
2022/01/01 09:59:46;;;;;;;10.77;9.37;;;12.70;92.60;;;;;;6290910;28;20523;-62
2022/01/01 10:02:51;;;;;;;7.90;7.10;;;12.90;92.20;;;;;;6284689;28;20473;-63
2022/01/01 10:06:02;;;;;;;11.07;8.20;;;13.10;91.40;;;;;;6285966;28;20480;-63
2022/01/01 10:09:06;;;;;;;8.63;7.80;;;13.20;91.00;;;;;;6291626;28;20481;-63
2022/01/01 10:12:12;;;;;;;9.60;8.60;;;13.40;90.60;;;;;;6278191;28;20473;-63
2022/01/01 10:15:16;;;;;;;9.07;8.20;;;13.50;90.40;;;;;;6284308;28;20825;-62
2022/01/01 10:18:25;;;;;;;10.23;7.73;;;13.60;90.30;;;;;;6281331;28;20490;-62
2022/01/01 10:21:34;;;;;;;9.63;8.70;;;13.70;90.20;;;;;;6276013;28;21019;-62
2022/01/01 10:27:59;;;;;;;8.77;7.90;;;13.80;89.50;;;;;;6300276;28;20894;-62
2022/01/01 10:31:08;;;;;;;10.13;9.13;;;13.90;88.20;;;;;;6301525;28;20449;-63
2022/01/01 10:34:15;;;;;;;11.70;10.50;;;13.90;88.90;;;;;;6300430;28;20480;-62
2022/01/01 10:37:18;;;;;;;13.53;9.90;;;14.00;88.70;;;;;;6299815;28;20468;-62
2022/01/01 10:40:26;;;;;;;11.77;10.50;;;14.10;88.20;;;;;;6300714;28;21003;-62
2022/01/01 10:43:36;;;;;;;15.07;12.57;;;14.10;87.00;;;;;;6299991;28;20534;-62
2022/01/01 10:46:40;;;;;;;13.50;11.77;;;14.00;86.90;;;;;;6299962;28;20473;-62
2022/01/01 10:50:03;;;;;;;13.03;11.20;;;14.00;87.00;;;;;;6300599;28;20768;-63
2022/01/01 10:53:14;;;;;;;13.43;12.03;;;14.00;87.00;;;;;;6299653;28;20474;-63
2022/01/01 10:56:19;;;;;;;13.83;12.10;;;14.10;86.70;;;;;;6300144;28;20473;-62
2022/01/01 10:59:30;;;;;;;16.33;13.23;;;14.10;85.80;;;;;;6299431;28;20496;-62
2022/01/01 11:02:34;;;;;;;16.20;14.40;;;14.10;85.80;;;;;;6295078;28;20492;-62
2022/01/01 11:05:39;;;;;;;14.43;12.70;;;14.30;85.90;;;;;;6299686;28;20473;-62
2022/01/01 11:08:44;;;;;;;15.07;12.70;;;14.40;84.70;;;;;;6299240;28;20507;-63
2022/01/01 11:11:48;;;;;;;15.80;12.87;;;14.50;85.20;;;;;;6299357;28;20972;-63
2022/01/01 11:14:53;;;;;;;14.37;12.77;;;14.70;85.40;;;;;;6299306;28;20527;-63
2022/01/01 11:17:57;;;;;;;15.40;13.70;;;14.90;84.60;;;;;;6298874;28;20480;-62
2022/01/01 11:21:03;;;;;;;12.13;10.37;;;15.40;84.30;;;;;;6299075;28;20465;-63
2022/01/01 11:24:07;;;;;;;12.53;11.23;;;17.60;79.70;;;;;;6298879;28;20485;-64
2022/01/01 11:27:10;;;;;;;12.77;11.47;;;20.40;67.00;;;;;;6299301;28;20476;-63
2022/01/01 11:30:14;;;;;;;12.20;10.53;;;21.40;59.40;;;;;;6301594;28;20237;-63
2022/01/01 11:33:21;;;;;;;11.87;10.67;;;20.90;56.50;;;;;;6303339;28;20288;-63
2022/01/01 11:36:26;;;;;;;10.57;9.47;;;20.60;56.40;;;;;;6303293;28;20227;-63
2022/01/01 11:39:29;;;;;;;10.37;8.97;;;21.40;56.20;;;;;;6303187;28;20667;-63
2022/01/01 11:42:45;;;;;;;8.80;8.00;;;23.80;50.20;;;;;;6305014;28;20608;-63
2022/01/01 11:45:49;;;;;;;11.03;9.20;;;25.70;43.90;;;;;;6302875;28;20227;-63
2022/01/01 11:48:54;;;;;;;10.17;9.27;;;26.60;41.20;;;;;;6303710;28;20293;-63
2022/01/01 11:52:00;;;;;;;12.50;11.17;;;28.30;38.80;;;;;;6303479;28;20198;-64
2022/01/01 11:55:06;;;;;;;11.60;10.50;;;29.90;35.30;;;;;;6300327;28;20543;-64
2022/01/01 11:58:13;;;;;;;9.57;8.77;;;30.80;31.30;;;;;;6302411;28;20230;-63
2022/01/01 12:01:17;;;;;;;9.00;8.20;;;31.30;30.00;;;;;;6302570;28;20227;-64
2022/01/01 12:04:28;;;;;;;9.90;8.03;;;31.50;28.70;;;;;;6302412;28;20319;-64
2022/01/01 12:07:44;;;;;;;7.77;7.17;;;30.50;28.80;;;;;;6302632;28;20222;-63
2022/01/01 12:10:51;;;;;;;7.67;6.97;;;28.90;29.70;;;;;;6302283;28;20225;-63
2022/01/01 12:13:56;;;;;;;7.57;6.97;;;28.30;31.00;;;;;;6302456;28;20314;-65
2022/01/01 12:17:04;;;;;;;7.73;7.00;;;28.90;30.20;;;;;;6302622;28;20224;-63
2022/01/01 12:20:10;;;;;;;7.10;6.40;;;29.70;29.60;;;;;;6302381;28;20712;-65
2022/01/01 12:23:16;;;;;;;7.80;7.07;;;29.90;29.10;;;;;;6302130;28;20571;-65
2022/01/01 12:26:19;;;;;;;7.33;6.63;;;29.40;29.00;;;;;;6302090;28;20284;-64
2022/01/01 12:29:25;;;;;;;6.70;6.20;;;28.20;29.60;;;;;;6301848;28;20246;-64
2022/01/01 12:32:37;;;;;;;6.90;6.30;;;27.60;30.80;;;;;;6302914;28;20241;-63
2022/01/01 12:35:47;;;;;;;8.73;6.50;;;28.30;30.80;;;;;;6302885;28;20238;-64
2022/01/01 12:38:54;;;;;;;6.10;5.50;;;29.30;30.40;;;;;;6302279;28;20245;-65
2022/01/01 12:41:57;;;;;;;5.47;4.97;;;29.80;28.90;;;;;;6302049;28;20570;-64
2022/01/01 12:45:04;;;;;;;4.93;4.47;;;30.20;28.80;;;;;;6302221;28;20271;-64
2022/01/01 12:48:07;;;;;;;5.20;4.70;;;30.20;28.30;;;;;;6301990;28;20230;-64
2022/01/01 12:51:12;;;;;;;5.80;5.23;;;30.10;28.10;;;;;;6302456;28;20241;-63
2022/01/01 12:54:18;;;;;;;5.33;4.73;;;30.00;28.60;;;;;;6301786;28;20233;-65
2022/01/01 12:57:23;;;;;;;5.50;5.00;;;29.80;28.30;;;;;;6302165;28;20233;-64
2022/01/01 13:00:26;;;;;;;5.67;5.20;;;29.70;28.30;;;;;;6301406;28;20234;-64
2022/01/01 13:03:30;;;;;;;4.70;4.30;;;29.40;28.20;;;;;;6300955;28;20572;-64
2022/01/01 13:06:35;;;;;;;4.97;4.53;;;29.20;28.30;;;;;;6301630;28;20241;-64
2022/01/01 13:09:41;;;;;;;5.80;5.20;;;28.90;28.90;;;;;;6301288;28;20218;-65
2022/01/01 13:12:48;;;;;;;5.50;5.00;;;28.00;29.30;;;;;;6292243;28;20234;-64
2022/01/01 13:15:53;;;;;;;5.70;4.40;;;27.00;30.50;;;;;;6301346;28;20222;-64
2022/01/01 13:18:57;;;;;;;5.70;4.80;;;26.30;30.90;;;;;;6300691;28;20627;-63
2022/01/01 13:22:01;;;;;;;4.93;4.53;;;26.10;31.80;;;;;;6286904;28;20214;-64
2022/01/01 13:25:07;;;;;;;4.60;4.20;;;26.80;31.30;;;;;;6278402;28;20226;-63
2022/01/01 13:28:10;;;;;;;4.60;4.00;;;28.00;30.20;;;;;;6296851;28;20230;-63
2022/01/01 13:31:14;;;;;;;4.87;4.40;;;29.30;29.00;;;;;;6298165;28;20230;-63
2022/01/01 13:34:20;;;;;;;5.60;4.67;;;29.30;28.60;;;;;;6297680;28;20230;-63
2022/01/01 13:37:25;;;;;;;8.07;5.23;;;28.30;29.30;;;;;;6298114;28;20230;-63
2022/01/01 13:40:30;;;;;;;5.93;5.33;;;28.20;29.70;;;;;;6297939;28;20234;-63
2022/01/01 13:43:35;;;;;;;7.20;6.50;;;28.30;29.80;;;;;;6300500;28;20226;-62
2022/01/01 13:46:41;;;;;;;12.37;6.20;;;28.40;29.80;;;;;;6300408;28;20242;-63
2022/01/01 13:49:46;;;;;;;6.87;6.27;;;28.30;29.80;;;;;;6300330;28;20225;-63
2022/01/01 13:52:55;;;;;;;8.23;7.40;;;28.10;29.70;;;;;;6299111;28;20678;-63
2022/01/01 13:56:02;;;;;;;7.30;6.60;;;27.40;30.50;;;;;;6283097;28;20231;-63
2022/01/01 13:59:06;;;;;;;6.40;5.80;;;27.00;30.80;;;;;;6275279;28;20239;-63
2022/01/01 14:02:13;;;;;;;8.63;6.40;;;26.70;31.10;;;;;;6278876;28;20233;-62
2022/01/01 14:05:18;;;;;;;6.90;6.20;;;26.30;31.20;;;;;;6299718;28;20313;-63
2022/01/01 14:08:22;;;;;;;7.07;6.40;;;26.00;31.70;;;;;;6299759;28;20227;-63
2022/01/01 14:11:31;;;;;;;6.67;5.97;;;25.70;32.40;;;;;;6299896;28;20227;-63
2022/01/01 14:14:34;;;;;;;8.60;7.70;;;25.20;33.20;;;;;;6290586;28;20594;-63
2022/01/01 14:17:51;;;;;;;8.83;7.97;;;25.10;33.90;;;;;;6299636;28;20547;-62
2022/01/01 14:20:54;;;;;;;8.80;7.77;;;25.20;33.80;;;;;;6299157;28;20231;-62
2022/01/01 14:24:04;;;;;;;9.13;8.23;;;24.80;34.10;;;;;;6299332;28;20242;-62
2022/01/01 14:27:08;;;;;;;11.70;8.50;;;23.70;35.80;;;;;;6299373;28;20231;-62
2022/01/01 14:30:12;;;;;;;10.27;9.37;;;23.00;37.20;;;;;;6299166;28;20235;-62
2022/01/01 14:33:16;;;;;;;11.27;10.00;;;22.30;38.20;;;;;;6299000;28;20299;-62
2022/01/01 14:36:19;;;;;;;10.23;9.03;;;21.70;39.30;;;;;;6299011;28;20681;-62
2022/01/01 14:39:22;;;;;;;10.30;9.30;;;20.90;40.50;;;;;;6298829;28;20226;-62
2022/01/01 14:42:27;;;;;;;11.00;9.90;;;20.00;42.50;;;;;;6284534;28;20595;-62
2022/01/01 14:45:32;;;;;;;10.10;9.10;;;19.10;44.10;;;;;;6284482;28;20227;-62
2022/01/01 14:48:38;;;;;;;11.63;9.27;;;18.50;45.50;;;;;;6286101;28;20304;-62
2022/01/01 14:51:52;;;;;;;10.50;9.03;;;17.90;47.30;;;;;;6283958;28;20474;-62
2022/01/01 14:55:03;;;;;;;13.43;9.20;;;17.30;48.20;;;;;;6287712;28;20929;-62
2022/01/01 14:58:16;;;;;;;10.17;8.87;;;16.90;49.40;;;;;;6300542;28;20440;-62
2022/01/01 15:01:19;;;;;;;10.93;9.90;;;16.50;50.60;;;;;;6299968;28;20480;-62
2022/01/01 15:04:24;;;;;;;12.07;10.87;;;16.10;51.70;;;;;;6299591;28;20964;-62
2022/01/01 15:07:27;;;;;;;13.90;12.47;;;15.80;52.70;;;;;;6304426;28;20477;-62
2022/01/01 15:10:32;;;;;;;11.27;10.27;;;15.50;53.80;;;;;;6303658;28;20487;-62
2022/01/01 15:13:37;;;;;;;11.97;10.77;;;15.20;54.50;;;;;;6303133;28;20481;-62
2022/01/01 15:16:41;;;;;;;13.20;11.80;;;15.00;55.80;;;;;;6299703;28;20483;-62
2022/01/01 15:19:47;;;;;;;12.80;10.53;;;14.80;56.70;;;;;;6303959;28;20469;-62
2022/01/01 15:23:02;;;;;;;14.83;9.80;;;14.50;57.70;;;;;;6303660;28;20469;-62
2022/01/01 15:26:06;;;;;;;12.77;9.60;;;14.40;58.70;;;;;;6303214;28;20500;-62
2022/01/01 15:29:22;;;;;;;12.30;11.10;;;14.20;60.50;;;;;;6293181;28;20476;-62
2022/01/01 15:36:04;;;;;;;10.97;9.87;;;13.70;63.80;;;;;;6278161;28;20470;-63
2022/01/01 15:39:10;;;;;;;10.90;9.50;;;13.60;65.30;;;;;;6278175;28;20470;-63
2022/01/01 15:42:23;;;;;;;16.33;9.63;;;13.40;67.40;;;;;;6277627;28;20474;-63
2022/01/01 15:45:28;;;;;;;12.20;9.93;;;13.20;68.60;;;;;;6277776;28;20508;-62
2022/01/01 15:48:31;;;;;;;11.50;10.30;;;13.10;70.20;;;;;;6277683;28;21069;-63
2022/01/01 15:51:34;;;;;;;9.80;8.80;;;13.00;71.80;;;;;;6278068;28;20470;-63
2022/01/01 15:54:38;;;;;;;9.57;8.67;;;12.80;73.20;;;;;;6283026;28;20952;-61
2022/01/01 15:57:51;;;;;;;9.33;8.20;;;12.70;75.20;;;;;;6302765;28;20473;-61
2022/01/01 16:01:03;;;;;;;10.40;8.70;;;12.50;76.70;;;;;;6303002;28;20532;-61
2022/01/01 16:04:46;;;;;;;11.10;9.60;;;12.30;78.00;;;;;;6302407;28;20536;-61
2022/01/01 16:07:50;;;;;;;11.77;8.10;;;12.30;80.30;;;;;;6302615;28;20461;-62
2022/01/01 16:10:56;;;;;;;13.37;9.60;;;12.10;81.90;;;;;;6302708;28;20468;-63